Fort Providence, Canada
Current Conditions -  °F | °C
As of 9:32 AM on Sunday 21 Dec 2014 (Local Time) from CYHY Reporting Station
Haze Haze  
Wind Chill:   Ceiling: 300
Heat Index: 16°   Visibility: 6mi
Dew Point: 14°   Wind: 9mph
Humidity: 93%   Direction: 50°NE
Pressure: 29.55"   Gusts: NA
Location:  61.37°N, 117.65°W
Report Text: CYHY 211632Z 05008KT 6SM BR OVC003 M09/M10 A2955 RMK ST8 CIG RAG VIS S 3 BR SLP022
Loading
Personal Weather Stations






























Interactive Weather Map New forecast layout! Learn more

10-Day Weather Forecast

Advertisements
Track Severe Weather on mobile